Kaiser — NHJK — position and weather

sailwx.info

Track history (hours):
 
Tides and Currents Weather Stations Pressure Air Temp Water Temp Dewpoint Dewpoint Depression Visibility Wind Speed Wind Dir Waves Ship Positions

Kaiser

Last reported at 2017-May-23 23:54 UTC. Time now 2017-May-25 16:15 UTC.
Position N 32°43' W 117°11'.

; draft 8.5 m.

Type: Military. MMSI: 303849000.

Date/timePositionNaut miles runAvg speedWind from/ knotsBaromVisibWave heightAir tempDewpointWater temp
2017-May-23 23:54N 32°43' W 117°11'0 0.8
2017-May-23 23:30N 32°43' W 117°12'3 6.9
2017-May-23 23:00N 32°40' W 117°14'510.6
2017-May-23 22:31N 32°35' W 117°13'611.7
2017-May-23 22:01N 32°34' W 117°20'611.3
2017-May-23 21:31N 32°36' W 117°27'611.6
2017-May-23 21:01N 32°36' W 117°34'50 2.0
2017-May-22 20:15N 32°36' W 118°33'417.9
2017-May-22 20:00N 32°36' W 118°27'917.6
2017-May-22 19:30N 32°36' W 118°17'917.5
2017-May-22 19:00N 32°36' W 118°07'917.6
2017-May-22 18:30N 32°36' W 117°56'917.4
2017-May-22 18:00N 32°36' W 117°46'917.7
2017-May-22 17:31N 32°36' W 117°35'917.8
2017-May-22 17:00N 32°36' W 117°25'816.8
2017-May-22 16:31N 32°37' W 117°15'510.4
2017-May-22 16:00N 32°42' W 117°14'2 4.8
2017-May-22 15:30N 32°43' W 117°11'  
2017-May-15 21:54N 32°43' W 117°11'0 0.4
2017-May-15 21:30N 32°43' W 117°11'3 6.2
2017-May-15 21:01N 32°41' W 117°14'510.9
2017-May-15 20:30N 32°35' W 117°13'  
Track history (hours):
 
Tides and Currents Weather Stations Pressure Air Temp Water Temp Dewpoint Dewpoint Depression Visibility Wind Speed Wind Dir Waves Ship Positions

Kaiser

Last reported at 2017-May-23 23:54 UTC. Time now 2017-May-25 16:15 UTC.
Position N 32°43' W 117°11'.

; draft 8.5 m.

Type: Military. MMSI: 303849000.

Date/timePositionNaut miles runAvg speedWind from/ knotsBaromVisibWave heightAir tempDewpointWater temp
2017-May-23 23:54N 32°43' W 117°11'0 0.8
2017-May-23 23:30N 32°43' W 117°12'3 6.9
2017-May-23 23:00N 32°40' W 117°14'510.6
2017-May-23 22:31N 32°35' W 117°13'611.7
2017-May-23 22:01N 32°34' W 117°20'611.3
2017-May-23 21:31N 32°36' W 117°27'611.6
2017-May-23 21:01N 32°36' W 117°34'50 2.0
2017-May-22 20:15N 32°36' W 118°33'417.9
2017-May-22 20:00N 32°36' W 118°27'917.6
2017-May-22 19:30N 32°36' W 118°17'917.5
2017-May-22 19:00N 32°36' W 118°07'917.6
2017-May-22 18:30N 32°36' W 117°56'917.4
2017-May-22 18:00N 32°36' W 117°46'917.7
2017-May-22 17:31N 32°36' W 117°35'917.8
2017-May-22 17:00N 32°36' W 117°25'816.8
2017-May-22 16:31N 32°37' W 117°15'510.4
2017-May-22 16:00N 32°42' W 117°14'2 4.8
2017-May-22 15:30N 32°43' W 117°11'  
2017-May-15 21:54N 32°43' W 117°11'0 0.4
2017-May-15 21:30N 32°43' W 117°11'3 6.2
2017-May-15 21:01N 32°41' W 117°14'510.9
2017-May-15 20:30N 32°35' W 117°13'  

Dump ship's entire track history